Terminal Aerodrome Forecast
Issued by NWS Cleveland, OH

Home | Current Version | Previous Version | Graphics & Text | Print | Product List | Glossary Off
Versions: 1 2 3 4 5 6 7 8 9 10 11 12 13 14 15 16 17 18 19 20

000
FTUS41 KCLE 201900 AAA
TAFTOL
TAF AMD
KTOL 201931Z 2020/2118 25012G18KT P6SM VCSH BKN050
     FM210200 27005KT P6SM SCT150 BKN250
     FM210600 24003KT 6SM BR BKN150
      TEMPO 2106/2109 4SM BR
     FM210900 24003KT 5SM BR VCTS BKN035CB
      TEMPO 2109/2113 3SM -SHRA BR BKN035
     FM211300 24007KT 6SM HZ VCTS BKN025CB=

USA.gov is the U.S. government's official web portal to all federal, state and local government web resources and services.